Time;durP1;ratioP1;P1;durP2;ratioP2;P2;SDS_P1;SDS_P2;PMS_P1;PMS_P2;Temp;Humidity;BMP_temperature;BMP_pressure;BME280_temperature;BME280_humidity;BME280_pressure;Samples;Min_cycle;Max_cycle;Signal;HPM_P1;HPM_P2
2022/01/22 00:02:25;;;;;;;17.13;2.42;;;;;;;;;;4980222;28;20042;-87
2022/01/22 00:04:51;;;;;;;19.38;2.17;;;;;;;;;;4996144;28;20049;-87
2022/01/22 00:07:17;;;;;;;20.08;2.60;;;;;;;;;;4979943;28;20128;-87
2022/01/22 00:09:50;;;;;;;11.45;2.17;;;;;;;;;;4996122;28;20096;-87
2022/01/22 00:12:30;;;;;;;17.42;2.35;;;;;;;;;;4980322;28;20358;-87
2022/01/22 00:14:56;;;;;;;15.40;2.53;;;;;;;;;;5013962;28;20042;-87
2022/01/22 00:17:22;;;;;;;14.57;2.20;;;;;;;;;;4979843;28;20308;-87
2022/01/22 00:19:48;;;;;;;14.15;2.05;;;;;;;;;;4995989;28;20265;-86
2022/01/22 00:22:14;;;;;;;10.05;2.15;;;;;;;;;;4996338;28;20046;-88
2022/01/22 00:24:40;;;;;;;12.68;1.98;;;;;;;;;;4979794;28;20048;-86
2022/01/22 00:27:07;;;;;;;17.38;2.00;;;;;;;;;;4995965;28;20077;-86
2022/01/22 00:29:33;;;;;;;11.65;1.88;;;;;;;;;;4995886;28;20041;-86
2022/01/22 00:31:59;;;;;;;12.63;1.90;;;;;;;;;;4996046;28;20052;-86
2022/01/22 00:34:25;;;;;;;11.90;1.42;;;;;;;;;;5013450;28;20038;-87
2022/01/22 00:36:51;;;;;;;14.93;1.60;;;;;;;;;;4995919;28;20088;-87
2022/01/22 00:39:17;;;;;;;11.15;1.50;;;;;;;;;;4995658;28;20045;-87
2022/01/22 00:41:42;;;;;;;12.68;1.40;;;;;;;;;;4995563;28;20405;-87
2022/01/22 00:44:08;;;;;;;15.13;2.38;;;;;;;;;;4995481;28;20050;-87
2022/01/22 00:46:34;;;;;;;18.80;1.90;;;;;;;;;;4995920;28;20056;-86
2022/01/22 00:49:02;;;;;;;10.45;1.55;;;;;;;;;;4995396;28;20049;-87
2022/01/22 00:51:28;;;;;;;10.50;1.65;;;;;;;;;;4979525;28;20042;-87
2022/01/22 00:53:54;;;;;;;13.50;1.50;;;;;;;;;;4995476;28;20401;-86
2022/01/22 00:56:20;;;;;;;15.15;1.83;;;;;;;;;;4995627;28;20092;-87
2022/01/22 00:58:46;;;;;;;11.55;1.65;;;;;;;;;;4995527;28;20052;-86
2022/01/22 01:01:12;;;;;;;11.90;1.85;;;;;;;;;;4995490;28;20045;-86
2022/01/22 01:03:38;;;;;;;13.93;2.00;;;;;;;;;;4995408;28;20048;-88
2022/01/22 01:06:05;;;;;;;10.63;1.70;;;;;;;;;;4995457;28;20042;-87
2022/01/22 01:08:33;;;;;;;11.85;1.80;;;;;;;;;;4995286;28;20049;-87
2022/01/22 01:11:00;;;;;;;15.20;2.08;;;;;;;;;;5013256;28;20045;-87
2022/01/22 01:13:28;;;;;;;10.82;1.95;;;;;;;;;;5012697;28;20441;-87
2022/01/22 01:32:14;;;;;;;11.77;1.00;;;;;;;;;;4999305;28;20076;-87
2022/01/22 01:34:43;;;;;;;6.82;1.02;;;;;;;;;;4982892;28;20046;-90
2022/01/22 01:37:10;;;;;;;7.38;0.93;;;;;;;;;;5016965;28;20053;-87
2022/01/22 01:39:38;;;;;;;9.07;1.23;;;;;;;;;;4998978;28;20485;-88
2022/01/22 01:42:15;;;;;;;9.55;1.27;;;;;;;;;;4982977;28;20220;-87
2022/01/22 01:44:41;;;;;;;9.65;1.30;;;;;;;;;;4999172;28;20075;-87
2022/01/22 01:47:09;;;;;;;8.18;1.30;;;;;;;;;;4998968;28;20502;-86
2022/01/22 01:49:36;;;;;;;8.45;1.45;;;;;;;;;;4999122;28;20045;-87
2022/01/22 01:52:04;;;;;;;14.13;1.60;;;;;;;;;;4999160;28;20393;-87
2022/01/22 01:54:45;;;;;;;11.30;1.63;;;;;;;;;;4998686;28;20053;-87
2022/01/22 01:59:51;;;;;;;7.90;0.98;;;;;;;;;;5016486;28;20430;-87
2022/01/22 02:02:17;;;;;;;10.75;1.08;;;;;;;;;;4998700;28;20095;-87
2022/01/22 02:04:43;;;;;;;9.68;1.45;;;;;;;;;;4998564;28;20034;-86
2022/01/22 02:07:09;;;;;;;13.77;0.98;;;;;;;;;;4998600;28;20037;-88
2022/01/22 02:09:36;;;;;;;7.15;1.10;;;;;;;;;;5016182;28;20081;-87
2022/01/22 02:12:10;;;;;;;9.10;1.00;;;;;;;;;;4998555;28;20037;-86
2022/01/22 02:25:24;;;;;;;6.50;1.17;;;;;;;;;;5016016;28;20038;-86
2022/01/22 02:27:50;;;;;;;7.03;0.98;;;;;;;;;;4998197;28;20133;-87
2022/01/22 02:30:22;;;;;;;5.90;1.35;;;;;;;;;;4998064;28;20128;-87
2022/01/22 02:35:32;;;;;;;7.15;1.10;;;;;;;;;;5015545;28;20121;-87
2022/01/22 02:38:04;;;;;;;6.90;1.13;;;;;;;;;;5015794;28;20046;-88
2022/01/22 02:40:36;;;;;;;9.88;1.38;;;;;;;;;;4999732;28;20065;-89
2022/01/22 02:43:02;;;;;;;6.55;1.27;;;;;;;;;;4991337;28;20493;-87
2022/01/22 02:45:31;;;;;;;8.13;1.10;;;;;;;;;;4997768;28;20045;-87
2022/01/22 02:47:58;;;;;;;8.45;1.48;;;;;;;;;;5015600;28;20046;-88
2022/01/22 02:50:24;;;;;;;5.53;1.13;;;;;;;;;;4997715;28;20049;-87
2022/01/22 02:52:50;;;;;;;6.35;1.58;;;;;;;;;;4997727;28;20057;-87
2022/01/22 02:55:16;;;;;;;8.02;1.40;;;;;;;;;;5015229;28;20042;-86
2022/01/22 02:57:44;;;;;;;7.15;1.08;;;;;;;;;;4997659;28;20048;-87
2022/01/22 03:00:11;;;;;;;7.65;1.13;;;;;;;;;;5015033;28;20389;-86
2022/01/22 03:02:41;;;;;;;8.75;1.73;;;;;;;;;;4997772;28;20042;-87
2022/01/22 03:05:07;;;;;;;6.95;1.88;;;;;;;;;;4997385;28;20540;-86
2022/01/22 03:07:34;;;;;;;10.15;1.33;;;;;;;;;;4997522;28;20054;-88
2022/01/22 03:10:03;;;;;;;7.45;1.33;;;;;;;;;;4997486;28;20049;-88
2022/01/22 03:18:01;;;;;;;9.30;1.63;;;;;;;;;;4997343;28;20409;-87
2022/01/22 03:20:45;;;;;;;6.70;1.05;;;;;;;;;;4997072;28;20046;-87
2022/01/22 03:28:53;;;;;;;9.55;1.35;;;;;;;;;;5014853;28;20129;-87
2022/01/22 03:31:19;;;;;;;11.02;1.70;;;;;;;;;;5014722;28;20064;-87
2022/01/22 03:33:46;;;;;;;11.02;1.52;;;;;;;;;;4997369;28;20444;-87
2022/01/22 03:36:12;;;;;;;7.53;1.25;;;;;;;;;;5014661;28;20457;-87
2022/01/22 03:38:38;;;;;;;6.00;1.48;;;;;;;;;;4996921;28;20126;-87
2022/01/22 03:41:04;;;;;;;10.80;1.20;;;;;;;;;;4996608;28;20382;-86
2022/01/22 03:43:30;;;;;;;7.60;1.38;;;;;;;;;;4996088;28;20050;-88
2022/01/22 03:45:56;;;;;;;8.35;0.90;;;;;;;;;;4996579;28;20053;-87
2022/01/22 03:48:22;;;;;;;8.40;1.33;;;;;;;;;;4996774;28;20120;-88
2022/01/22 03:50:51;;;;;;;5.93;1.02;;;;;;;;;;5014114;28;20173;-87
2022/01/22 03:53:17;;;;;;;7.07;0.90;;;;;;;;;;4996502;28;20091;-87
2022/01/22 03:56:17;;;;;;;5.00;0.80;;;;;;;;;;4980213;28;20139;-87
2022/01/22 03:58:38;;;;;;;8.88;0.90;;;;;;;;;;4991794;28;20054;-88
2022/01/22 04:04:04;;;;;;;6.43;1.25;;;;;;;;;;5014078;28;20400;-87
2022/01/22 04:07:03;;;;;;;8.10;0.85;;;;;;;;;;4996502;28;20038;-87
2022/01/22 04:09:20;;;;;;;9.00;1.00;;;;;;;;;;4996305;28;20129;-88
2022/01/22 04:11:47;;;;;;;5.78;0.82;;;;;;;;;;5013713;28;20045;-87
2022/01/22 04:14:21;;;;;;;4.00;0.75;;;;;;;;;;4996398;28;20049;-87
2022/01/22 04:17:07;;;;;;;4.25;0.85;;;;;;;;;;4996305;28;20056;-87
2022/01/22 04:25:03;;;;;;;4.75;0.80;;;;;;;;;;4996100;28;20485;-87
2022/01/22 04:27:29;;;;;;;3.65;0.55;;;;;;;;;;4996025;28;20050;-88
2022/01/22 04:29:58;;;;;;;5.38;0.73;;;;;;;;;;4996299;28;20050;-87
2022/01/22 04:32:29;;;;;;;4.85;0.95;;;;;;;;;;4996035;28;20041;-87
2022/01/22 04:34:55;;;;;;;4.55;0.70;;;;;;;;;;4996279;28;20114;-87
2022/01/22 04:37:24;;;;;;;5.20;0.75;;;;;;;;;;4995881;28;20095;-87
2022/01/22 04:39:49;;;;;;;4.93;0.80;;;;;;;;;;4979775;28;20393;-87
2022/01/22 04:42:16;;;;;;;5.28;0.90;;;;;;;;;;5013422;28;20041;-86
2022/01/22 04:44:53;;;;;;;7.45;1.10;;;;;;;;;;5013585;28;20113;-87
2022/01/22 04:55:34;;;;;;;8.13;1.75;;;;;;;;;;5012632;28;20050;-87
2022/01/22 04:58:03;;;;;;;9.02;1.30;;;;;;;;;;4995449;28;20053;-87
2022/01/22 05:00:31;;;;;;;7.80;1.13;;;;;;;;;;5013058;28;20508;-87
2022/01/22 05:02:57;;;;;;;6.95;1.40;;;;;;;;;;5013078;28;20044;-87
2022/01/22 05:05:23;;;;;;;8.45;1.27;;;;;;;;;;4995392;28;20041;-88
2022/01/22 05:07:49;;;;;;;4.60;0.90;;;;;;;;;;4995394;28;20124;-87
2022/01/22 05:10:15;;;;;;;9.27;1.30;;;;;;;;;;4995726;28;20442;-87
2022/01/22 05:12:41;;;;;;;8.65;1.10;;;;;;;;;;5012731;28;20049;-87
2022/01/22 05:15:08;;;;;;;7.45;0.90;;;;;;;;;;4995099;28;20096;-88
2022/01/22 05:17:37;;;;;;;5.22;0.88;;;;;;;;;;4995196;28;20049;-87
2022/01/22 05:20:09;;;;;;;5.93;1.00;;;;;;;;;;4995629;28;20054;-88
2022/01/22 05:22:50;;;;;;;5.55;0.90;;;;;;;;;;4979153;28;20054;-87
2022/01/22 05:25:28;;;;;;;6.45;0.82;;;;;;;;;;4995755;28;20067;-87
2022/01/22 05:38:32;;;;;;;6.85;0.80;;;;;;;;;;4995296;28;20089;-86
2022/01/22 05:40:58;;;;;;;5.15;0.90;;;;;;;;;;5012579;28;20489;-86
2022/01/22 05:43:24;;;;;;;4.43;0.80;;;;;;;;;;4995018;28;20092;-86
2022/01/22 05:45:50;;;;;;;6.93;1.02;;;;;;;;;;4979017;28;20042;-86
2022/01/22 05:48:16;;;;;;;8.75;1.10;;;;;;;;;;4994787;28;20378;-86
2022/01/22 05:50:53;;;;;;;8.57;1.08;;;;;;;;;;4995561;28;20121;-86
2022/01/22 06:01:18;;;;;;;8.40;1.02;;;;;;;;;;4995130;28;20050;-86
2022/01/22 06:03:44;;;;;;;7.15;1.38;;;;;;;;;;5012366;28;20128;-86
2022/01/22 06:06:11;;;;;;;5.72;1.20;;;;;;;;;;4996790;28;20090;-87
2022/01/22 06:08:46;;;;;;;9.80;2.70;;;;;;;;;;5020236;28;20052;-86
2022/01/22 06:11:21;;;;;;;10.43;1.55;;;;;;;;;;5026958;28;20048;-86
2022/01/22 06:13:47;;;;;;;11.63;1.42;;;;;;;;;;5035729;28;20045;-87
2022/01/22 06:16:22;;;;;;;9.68;1.02;;;;;;;;;;5018179;28;20124;-86
2022/01/22 06:18:49;;;;;;;9.70;1.63;;;;;;;;;;5017953;28;20076;-87
2022/01/22 06:21:15;;;;;;;10.27;1.35;;;;;;;;;;5018426;28;20128;-89
2022/01/22 06:23:43;;;;;;;8.57;2.22;;;;;;;;;;5017621;28;20049;-87
2022/01/22 06:26:09;;;;;;;9.13;1.77;;;;;;;;;;5018013;28;20397;-88
2022/01/22 06:28:36;;;;;;;8.60;2.42;;;;;;;;;;5029387;28;20042;-88
2022/01/22 06:31:02;;;;;;;7.22;1.42;;;;;;;;;;5034278;28;20056;-88
2022/01/22 06:33:28;;;;;;;8.05;1.60;;;;;;;;;;5017466;28;20385;-89
2022/01/22 06:35:54;;;;;;;8.27;1.38;;;;;;;;;;5017233;28;20042;-87
2022/01/22 06:38:20;;;;;;;8.00;1.17;;;;;;;;;;5033429;28;20041;-87
2022/01/22 06:43:32;;;;;;;12.43;1.40;;;;;;;;;;5033331;28;20513;-87
2022/01/22 06:45:58;;;;;;;8.13;1.27;;;;;;;;;;5033496;28;20377;-88
2022/01/22 06:48:24;;;;;;;8.90;1.45;;;;;;;;;;5034742;28;20133;-88
2022/01/22 06:50:50;;;;;;;10.68;1.60;;;;;;;;;;5033677;28;20077;-88
2022/01/22 06:53:16;;;;;;;13.75;1.58;;;;;;;;;;5033206;28;20037;-89
2022/01/22 06:55:49;;;;;;;8.05;1.33;;;;;;;;;;5033537;28;20052;-88
2022/01/22 06:58:15;;;;;;;9.98;1.70;;;;;;;;;;5017003;28;20045;-88
2022/01/22 07:00:41;;;;;;;8.40;1.27;;;;;;;;;;5033294;28;20457;-89
2022/01/22 07:03:07;;;;;;;5.65;1.60;;;;;;;;;;5033149;28;20217;-88
2022/01/22 07:05:33;;;;;;;8.15;1.25;;;;;;;;;;5033348;28;20469;-88
2022/01/22 07:07:59;;;;;;;8.73;1.70;;;;;;;;;;5032652;28;20076;-88
2022/01/22 07:10:25;;;;;;;3.85;0.80;;;;;;;;;;5033023;28;20042;-88
2022/01/22 07:12:51;;;;;;;6.97;1.05;;;;;;;;;;5032928;28;20055;-88
2022/01/22 07:15:17;;;;;;;6.90;1.00;;;;;;;;;;5032909;28;20471;-89
2022/01/22 07:17:45;;;;;;;5.78;1.00;;;;;;;;;;5031808;28;20045;-89
2022/01/22 07:20:16;;;;;;;7.55;1.30;;;;;;;;;;5033335;28;20144;-88
2022/01/22 07:22:54;;;;;;;8.82;1.08;;;;;;;;;;5032758;28;20497;-88
2022/01/22 07:25:20;;;;;;;8.00;1.40;;;;;;;;;;5016437;28;20041;-89
2022/01/22 07:27:47;;;;;;;10.13;2.28;;;;;;;;;;5016094;28;20462;-87
2022/01/22 07:30:13;;;;;;;6.97;1.50;;;;;;;;;;5032650;28;20112;-88
2022/01/22 07:32:42;;;;;;;7.57;1.90;;;;;;;;;;5033690;28;20404;-87
2022/01/22 07:35:09;;;;;;;12.45;2.03;;;;;;;;;;5016251;28;20116;-89
2022/01/22 07:37:36;;;;;;;13.50;2.28;;;;;;;;;;5032491;28;20045;-88
2022/01/22 07:40:03;;;;;;;8.15;2.00;;;;;;;;;;5032536;28;20057;-87
2022/01/22 07:42:29;;;;;;;11.82;2.33;;;;;;;;;;5032285;28;20075;-88
2022/01/22 07:44:55;;;;;;;6.00;1.20;;;;;;;;;;5032351;28;20439;-88
2022/01/22 07:47:21;;;;;;;4.78;1.10;;;;;;;;;;5032328;28;20033;-88
2022/01/22 07:49:47;;;;;;;10.57;1.70;;;;;;;;;;5032443;28;20041;-88
2022/01/22 07:52:13;;;;;;;2.50;0.75;;;;;;;;;;5032238;28;20034;-88
2022/01/22 07:54:39;;;;;;;4.55;1.15;;;;;;;;;;5032462;28;20056;-88
2022/01/22 07:57:05;;;;;;;6.15;1.00;;;;;;;;;;5015896;28;20048;-88
2022/01/22 07:59:32;;;;;;;2.83;0.98;;;;;;;;;;5031929;28;20539;-88
2022/01/22 08:01:59;;;;;;;5.57;1.02;;;;;;;;;;5032087;28;20045;-87
2022/01/22 08:04:29;;;;;;;7.93;1.20;;;;;;;;;;5032400;28;20536;-91
2022/01/22 08:06:56;;;;;;;5.43;1.70;;;;;;;;;;5031569;28;20492;-93
2022/01/22 08:09:22;;;;;;;5.00;1.30;;;;;;;;;;4981373;28;20053;-88
2022/01/22 08:11:48;;;;;;;3.97;1.20;;;;;;;;;;4996213;28;20038;-89
2022/01/22 08:14:14;;;;;;;6.78;1.27;;;;;;;;;;4979721;28;20482;-89
2022/01/22 08:16:40;;;;;;;5.93;0.90;;;;;;;;;;4996290;28;20041;-88
2022/01/22 08:19:07;;;;;;;4.68;0.85;;;;;;;;;;4996302;28;20102;-89
2022/01/22 08:21:33;;;;;;;5.30;1.13;;;;;;;;;;4996277;28;20038;-89
2022/01/22 08:23:59;;;;;;;8.82;1.23;;;;;;;;;;4995846;28;20128;-89
2022/01/22 08:26:30;;;;;;;7.78;1.00;;;;;;;;;;4996086;28;20128;-88
2022/01/22 08:28:58;;;;;;;6.38;1.55;;;;;;;;;;4995610;28;20061;-88
2022/01/22 08:36:24;;;;;;;4.75;1.13;;;;;;;;;;4995803;28;20045;-88
2022/01/22 08:38:50;;;;;;;4.43;0.80;;;;;;;;;;4995846;28;20045;-89
2022/01/22 08:41:16;;;;;;;3.30;0.70;;;;;;;;;;4976255;28;20108;-88
2022/01/22 08:43:42;;;;;;;4.55;0.88;;;;;;;;;;4992297;28;20050;-89
2022/01/22 08:46:08;;;;;;;4.18;0.68;;;;;;;;;;4992827;28;20053;-89
2022/01/22 08:48:34;;;;;;;3.88;0.80;;;;;;;;;;4992158;28;20072;-89
2022/01/22 08:51:01;;;;;;;4.85;0.80;;;;;;;;;;4992704;28;20402;-88
2022/01/22 08:53:27;;;;;;;5.13;1.20;;;;;;;;;;4992082;28;20104;-88
2022/01/22 08:55:53;;;;;;;7.35;1.13;;;;;;;;;;4992509;28;20482;-88
2022/01/22 08:58:19;;;;;;;3.38;0.82;;;;;;;;;;4992116;28;20049;-89
2022/01/22 09:00:45;;;;;;;3.85;1.02;;;;;;;;;;4992276;28;20409;-88
2022/01/22 09:03:13;;;;;;;5.53;1.10;;;;;;;;;;4976274;28;20046;-88
2022/01/22 09:05:39;;;;;;;6.78;1.08;;;;;;;;;;4992124;28;20387;-88
2022/01/22 09:08:05;;;;;;;3.55;1.02;;;;;;;;;;4992168;28;20172;-88
2022/01/22 09:10:31;;;;;;;4.47;0.90;;;;;;;;;;4991989;28;20047;-88
2022/01/22 09:12:57;;;;;;;12.82;1.10;;;;;;;;;;4993302;28;20405;-88
2022/01/22 09:15:23;;;;;;;3.25;0.70;;;;;;;;;;4992291;28;20081;-88
2022/01/22 09:17:49;;;;;;;7.60;1.25;;;;;;;;;;4992119;28;20053;-87
2022/01/22 09:20:31;;;;;;;5.43;0.80;;;;;;;;;;4992031;28;20038;-88
2022/01/22 09:22:58;;;;;;;5.22;0.80;;;;;;;;;;4975995;28;20042;-88
2022/01/22 09:25:24;;;;;;;4.03;0.75;;;;;;;;;;4991854;28;20078;-89
2022/01/22 09:27:50;;;;;;;6.38;0.63;;;;;;;;;;4991934;28;20042;-89
2022/01/22 09:30:16;;;;;;;5.68;0.60;;;;;;;;;;4991848;28;20051;-89
2022/01/22 09:32:42;;;;;;;8.20;1.17;;;;;;;;;;4991911;28;20453;-88
2022/01/22 09:35:08;;;;;;;8.23;0.70;;;;;;;;;;4992010;28;20121;-87
2022/01/22 09:37:34;;;;;;;4.53;0.63;;;;;;;;;;4991947;28;20067;-88
2022/01/22 09:40:00;;;;;;;3.88;0.73;;;;;;;;;;5004766;28;21837;-89
2022/01/22 09:42:26;;;;;;;2.90;0.47;;;;;;;;;;4998526;28;20046;-88
2022/01/22 09:44:52;;;;;;;6.28;0.85;;;;;;;;;;4999229;28;20508;-88
2022/01/22 09:47:20;;;;;;;4.47;0.65;;;;;;;;;;4999322;28;20053;-89
2022/01/22 09:49:46;;;;;;;3.80;0.68;;;;;;;;;;4998686;28;20057;-87
2022/01/22 09:52:13;;;;;;;3.55;0.77;;;;;;;;;;4982712;28;20042;-88
2022/01/22 09:54:39;;;;;;;2.60;0.50;;;;;;;;;;4982659;28;20441;-89
2022/01/22 09:57:06;;;;;;;3.83;0.63;;;;;;;;;;4998848;28;20038;-88
2022/01/22 09:59:33;;;;;;;7.13;0.88;;;;;;;;;;4998739;28;20068;-90
2022/01/22 10:02:08;;;;;;;5.72;1.13;;;;;;;;;;4999034;28;20064;-88
2022/01/22 10:04:41;;;;;;;6.75;1.30;;;;;;;;;;4998948;28;20033;-90
2022/01/22 10:07:15;;;;;;;4.90;0.80;;;;;;;;;;4997328;28;20100;-89
2022/01/22 10:10:00;;;;;;;6.55;0.90;;;;;;;;;;4998554;28;20049;-88
2022/01/22 10:12:27;;;;;;;5.43;0.73;;;;;;;;;;4982296;28;20048;-88
2022/01/22 10:15:12;;;;;;;5.25;0.98;;;;;;;;;;4998582;28;20417;-88
2022/01/22 10:17:49;;;;;;;16.15;1.25;;;;;;;;;;4998467;28;20042;-89
2022/01/22 10:20:24;;;;;;;5.70;1.00;;;;;;;;;;4998407;28;20042;-88
2022/01/22 10:22:50;;;;;;;11.15;1.52;;;;;;;;;;4998382;28;20038;-88
2022/01/22 10:25:20;;;;;;;10.43;2.25;;;;;;;;;;4998224;28;20115;-89
2022/01/22 10:27:54;;;;;;;8.93;1.50;;;;;;;;;;4981939;28;20550;-88
2022/01/22 10:30:21;;;;;;;6.28;1.75;;;;;;;;;;4981898;28;20485;-88
2022/01/22 10:32:58;;;;;;;8.52;1.40;;;;;;;;;;4998122;28;20046;-89
2022/01/22 10:35:26;;;;;;;6.30;1.00;;;;;;;;;;4998353;28;20041;-88
2022/01/22 10:37:55;;;;;;;6.78;0.98;;;;;;;;;;4998186;28;20445;-88
2022/01/22 10:40:29;;;;;;;6.78;0.95;;;;;;;;;;4997874;28;20111;-88
2022/01/22 10:43:19;;;;;;;6.28;0.80;;;;;;;;;;4997930;28;20049;-88
2022/01/22 10:46:00;;;;;;;6.53;1.10;;;;;;;;;;4981552;28;20574;-88
2022/01/22 10:48:26;;;;;;;6.47;1.52;;;;;;;;;;4997916;28;20076;-88
2022/01/22 10:51:03;;;;;;;8.43;1.70;;;;;;;;;;4997689;28;20129;-89
2022/01/22 10:53:35;;;;;;;4.43;0.90;;;;;;;;;;4996590;28;20033;-88
2022/01/22 10:56:06;;;;;;;3.72;0.93;;;;;;;;;;4997694;28;20046;-88
2022/01/22 10:58:33;;;;;;;6.68;1.08;;;;;;;;;;5015600;28;20108;-88
2022/01/22 11:01:08;;;;;;;6.20;1.30;;;;;;;;;;4997658;28;20100;-88
2022/01/22 11:03:34;;;;;;;5.53;0.80;;;;;;;;;;4997820;28;20137;-88
2022/01/22 11:06:05;;;;;;;8.02;1.17;;;;;;;;;;4997281;28;20120;-90
2022/01/22 11:08:32;;;;;;;4.82;1.20;;;;;;;;;;4997660;28;20098;-86
2022/01/22 11:10:58;;;;;;;3.67;0.95;;;;;;;;;;4997523;28;20085;-86
2022/01/22 11:13:23;;;;;;;6.75;1.00;;;;;;;;;;4997300;28;20038;-87
2022/01/22 11:15:51;;;;;;;5.30;1.10;;;;;;;;;;5014848;28;20053;-87
2022/01/22 11:18:18;;;;;;;5.35;1.10;;;;;;;;;;5002844;28;20179;-86
2022/01/22 11:20:45;;;;;;;6.30;1.75;;;;;;;;;;5024233;28;20053;-87
2022/01/22 11:23:12;;;;;;;9.68;1.67;;;;;;;;;;5013536;28;20050;-86
2022/01/22 11:25:39;;;;;;;6.20;1.10;;;;;;;;;;5007250;28;20038;-87
2022/01/22 11:28:05;;;;;;;8.18;1.40;;;;;;;;;;5005250;28;20037;-86
2022/01/22 11:30:32;;;;;;;8.43;1.50;;;;;;;;;;5014852;28;20121;-87
2022/01/22 11:33:00;;;;;;;5.78;1.67;;;;;;;;;;5016799;28;20041;-86
2022/01/22 11:35:45;;;;;;;6.13;1.70;;;;;;;;;;5013370;28;20508;-86
2022/01/22 11:38:13;;;;;;;14.82;2.15;;;;;;;;;;5016559;28;20045;-86
2022/01/22 11:40:39;;;;;;;9.18;1.95;;;;;;;;;;5016255;28;20132;-86
2022/01/22 11:43:08;;;;;;;8.23;2.05;;;;;;;;;;5016391;28;20172;-87
2022/01/22 11:45:36;;;;;;;9.70;1.73;;;;;;;;;;5016198;28;20050;-86
2022/01/22 11:48:15;;;;;;;10.48;2.22;;;;;;;;;;5000005;28;20524;-87
2022/01/22 11:50:42;;;;;;;10.60;2.20;;;;;;;;;;5016042;28;20052;-87
2022/01/22 11:53:27;;;;;;;15.95;4.35;;;;;;;;;;5016132;28;20038;-87
2022/01/22 11:56:12;;;;;;;11.38;3.72;;;;;;;;;;4999717;28;20044;-87
2022/01/22 11:58:56;;;;;;;16.55;4.35;;;;;;;;;;5016392;28;20503;-86
2022/01/22 12:01:50;;;;;;;8.60;2.75;;;;;;;;;;5015841;28;20114;-86
2022/01/22 12:04:17;;;;;;;10.57;2.28;;;;;;;;;;5008184;28;20532;-86
2022/01/22 12:07:01;;;;;;;9.73;2.10;;;;;;;;;;5015833;28;20052;-86
2022/01/22 12:09:30;;;;;;;9.93;2.67;;;;;;;;;;5016093;28;20041;-87
2022/01/22 12:14:50;;;;;;;10.27;3.45;;;;;;;;;;5016039;28;20049;-87
2022/01/22 12:17:29;;;;;;;10.05;2.00;;;;;;;;;;5015955;28;20104;-87
2022/01/22 12:22:31;;;;;;;10.40;1.88;;;;;;;;;;5017396;28;20041;-87
2022/01/22 12:24:58;;;;;;;12.40;2.45;;;;;;;;;;5015774;28;20053;-86
2022/01/22 12:27:43;;;;;;;11.18;2.33;;;;;;;;;;4999431;28;20037;-86
2022/01/22 12:30:09;;;;;;;12.63;3.05;;;;;;;;;;5026217;28;20480;-86
2022/01/22 12:32:49;;;;;;;13.52;2.97;;;;;;;;;;4995584;28;20112;-87
2022/01/22 12:35:19;;;;;;;14.05;3.22;;;;;;;;;;5013827;28;20046;-86
2022/01/22 12:37:49;;;;;;;11.45;2.97;;;;;;;;;;4995659;28;20042;-87
2022/01/22 12:40:27;;;;;;;9.80;2.90;;;;;;;;;;4995915;28;20116;-87
2022/01/22 12:43:02;;;;;;;14.07;3.17;;;;;;;;;;5013277;28;20050;-86
2022/01/22 12:45:28;;;;;;;8.02;3.10;;;;;;;;;;4995718;28;20058;-87
2022/01/22 12:47:54;;;;;;;11.70;3.55;;;;;;;;;;4995736;28;20042;-87
2022/01/22 12:50:25;;;;;;;9.32;2.88;;;;;;;;;;5013425;28;20639;-87
2022/01/22 12:52:51;;;;;;;9.13;2.97;;;;;;;;;;5012982;28;20151;-86
2022/01/22 12:55:19;;;;;;;13.32;3.95;;;;;;;;;;4995511;28;20041;-86
2022/01/22 12:57:45;;;;;;;16.45;7.15;;;;;;;;;;4995393;28;20126;-86
2022/01/22 13:00:16;;;;;;;14.93;5.82;;;;;;;;;;4995646;28;20042;-86
2022/01/22 13:02:43;;;;;;;12.57;3.67;;;;;;;;;;4995312;28;20109;-87
2022/01/22 13:05:10;;;;;;;9.52;2.80;;;;;;;;;;4995797;28;20392;-86
2022/01/22 13:07:42;;;;;;;13.68;3.70;;;;;;;;;;4995494;28;20432;-86
2022/01/22 13:10:09;;;;;;;11.45;2.95;;;;;;;;;;4995393;28;20477;-87
2022/01/22 13:12:44;;;;;;;14.00;2.88;;;;;;;;;;4995332;28;20050;-87
2022/01/22 13:15:11;;;;;;;11.95;3.20;;;;;;;;;;4994891;28;20084;-86
2022/01/22 13:17:37;;;;;;;11.77;2.92;;;;;;;;;;4994959;28;20048;-87
2022/01/22 13:20:04;;;;;;;9.48;2.75;;;;;;;;;;4995482;28;20543;-86
2022/01/22 13:22:34;;;;;;;10.50;3.25;;;;;;;;;;4995315;28;20497;-86
2022/01/22 13:25:05;;;;;;;15.77;3.38;;;;;;;;;;4995337;28;20053;-86
2022/01/22 13:27:32;;;;;;;12.57;3.10;;;;;;;;;;5012759;28;20324;-87
2022/01/22 13:29:58;;;;;;;13.30;3.17;;;;;;;;;;4995307;28;20088;-86
2022/01/22 13:32:43;;;;;;;13.48;3.10;;;;;;;;;;4996882;28;20034;-85
2022/01/22 13:35:47;;;;;;;14.05;2.95;;;;;;;;;;4995364;28;20068;-86
2022/01/22 13:38:30;;;;;;;15.10;3.05;;;;;;;;;;4995594;28;20544;-87
2022/01/22 13:49:00;;;;;;;16.00;2.58;;;;;;;;;;4995069;28;20086;-86
2022/01/22 13:51:27;;;;;;;13.70;2.35;;;;;;;;;;4994885;28;20050;-86
2022/01/22 13:53:53;;;;;;;10.07;2.38;;;;;;;;;;4994908;28;20084;-86
2022/01/22 13:56:22;;;;;;;11.52;2.70;;;;;;;;;;4994965;28;20050;-86
2022/01/22 13:58:53;;;;;;;10.25;2.22;;;;;;;;;;4994951;28;20493;-87
2022/01/22 14:01:32;;;;;;;17.48;4.32;;;;;;;;;;4978643;28;20038;-86
2022/01/22 14:04:12;;;;;;;11.40;3.30;;;;;;;;;;4994859;28;20050;-86
2022/01/22 14:06:38;;;;;;;14.18;3.97;;;;;;;;;;5012309;28;20049;-87
2022/01/22 14:09:13;;;;;;;16.42;4.55;;;;;;;;;;4994782;28;20045;-85
2022/01/22 14:11:59;;;;;;;14.02;2.55;;;;;;;;;;4994726;28;20512;-86
2022/01/22 14:14:26;;;;;;;9.48;1.85;;;;;;;;;;5012253;28;20061;-87
2022/01/22 14:17:13;;;;;;;10.38;1.48;;;;;;;;;;4994653;28;20048;-87
2022/01/22 14:19:39;;;;;;;7.53;1.58;;;;;;;;;;4984746;28;20038;-86
2022/01/22 14:22:05;;;;;;;7.93;1.70;;;;;;;;;;5003894;28;20044;-87
2022/01/22 14:24:32;;;;;;;6.45;1.58;;;;;;;;;;4999969;28;20052;-86
2022/01/22 14:26:58;;;;;;;13.02;1.45;;;;;;;;;;5003419;28;20495;-86
2022/01/22 14:29:24;;;;;;;5.32;1.40;;;;;;;;;;5007741;28;20065;-87
2022/01/22 14:31:51;;;;;;;8.20;1.38;;;;;;;;;;5006490;28;20048;-86
2022/01/22 14:34:39;;;;;;;7.65;1.80;;;;;;;;;;5005753;28;20041;-87
2022/01/22 14:37:06;;;;;;;13.25;1.70;;;;;;;;;;4981753;28;20045;-87
2022/01/22 14:45:26;;;;;;;6.70;1.23;;;;;;;;;;5018059;28;20045;-87
2022/01/22 14:47:59;;;;;;;12.38;1.73;;;;;;;;;;4997621;28;20118;-87
2022/01/22 14:50:27;;;;;;;11.07;1.40;;;;;;;;;;4997916;28;20038;-87
2022/01/22 14:52:54;;;;;;;8.57;1.73;;;;;;;;;;4997568;28;20038;-86
2022/01/22 14:55:20;;;;;;;12.73;1.80;;;;;;;;;;4997803;28;20042;-86
2022/01/22 14:57:46;;;;;;;7.40;1.30;;;;;;;;;;4997629;28;20050;-87
2022/01/22 15:00:15;;;;;;;7.07;1.20;;;;;;;;;;4998086;28;20038;-87
2022/01/22 15:02:41;;;;;;;5.22;1.15;;;;;;;;;;5015206;28;20054;-86
2022/01/22 15:05:08;;;;;;;8.35;1.52;;;;;;;;;;4997895;28;20484;-87
2022/01/22 15:07:35;;;;;;;6.43;1.35;;;;;;;;;;4997276;28;20038;-86
2022/01/22 15:10:01;;;;;;;6.55;1.10;;;;;;;;;;4997536;28;20038;-88
2022/01/22 15:12:27;;;;;;;9.27;1.92;;;;;;;;;;4997212;28;20121;-87
2022/01/22 15:14:53;;;;;;;5.60;0.85;;;;;;;;;;4997727;28;20081;-87
2022/01/22 15:19:46;;;;;;;6.47;1.13;;;;;;;;;;4997635;28;20282;-87
2022/01/22 15:22:16;;;;;;;8.20;1.23;;;;;;;;;;5014750;28;20608;-88
2022/01/22 15:24:44;;;;;;;9.75;1.63;;;;;;;;;;4997370;28;20117;-86
2022/01/22 15:27:12;;;;;;;7.50;1.20;;;;;;;;;;4997006;28;20045;-87
2022/01/22 15:29:54;;;;;;;6.03;1.17;;;;;;;;;;4997126;28;20050;-87
2022/01/22 15:32:40;;;;;;;7.35;1.10;;;;;;;;;;4980701;28;20070;-86
2022/01/22 15:35:07;;;;;;;11.97;4.50;;;;;;;;;;4980891;28;20045;-86
2022/01/22 15:37:37;;;;;;;19.52;6.00;;;;;;;;;;4996853;28;20046;-87
2022/01/22 15:40:07;;;;;;;12.60;3.60;;;;;;;;;;4996028;28;20132;-87
2022/01/22 15:42:33;;;;;;;7.95;1.33;;;;;;;;;;4996644;28;20053;-86
2022/01/22 15:44:59;;;;;;;13.82;1.15;;;;;;;;;;4996883;28;20051;-86
2022/01/22 15:47:25;;;;;;;8.55;1.20;;;;;;;;;;5014438;28;20038;-87
2022/01/22 15:49:56;;;;;;;8.23;1.17;;;;;;;;;;4996669;28;20042;-86
2022/01/22 15:52:22;;;;;;;9.65;3.63;;;;;;;;;;4996690;28;20042;-86
2022/01/22 15:54:48;;;;;;;27.55;9.60;;;;;;;;;;4980192;28;20046;-86
2022/01/22 15:57:15;;;;;;;22.30;9.07;;;;;;;;;;5015902;28;20038;-86
2022/01/22 15:59:41;;;;;;;14.48;5.05;;;;;;;;;;5001458;28;20375;-87
2022/01/22 16:02:07;;;;;;;5.95;1.65;;;;;;;;;;4996446;28;20129;-86
2022/01/22 16:04:34;;;;;;;8.32;1.45;;;;;;;;;;4996424;28;20128;-87
2022/01/22 16:07:18;;;;;;;7.75;1.20;;;;;;;;;;4996686;28;20493;-88
2022/01/22 16:09:44;;;;;;;6.07;1.60;;;;;;;;;;4980037;28;20046;-86
2022/01/22 16:12:10;;;;;;;6.55;1.48;;;;;;;;;;4980108;28;20037;-87
2022/01/22 16:14:37;;;;;;;4.75;0.80;;;;;;;;;;4996141;28;20050;-86
2022/01/22 16:17:04;;;;;;;7.65;1.45;;;;;;;;;;4980012;28;20046;-87
2022/01/22 16:19:31;;;;;;;8.90;1.33;;;;;;;;;;4995975;28;20053;-87
2022/01/22 16:21:57;;;;;;;4.93;0.77;;;;;;;;;;4980199;28;20045;-87
2022/01/22 16:24:23;;;;;;;5.45;0.85;;;;;;;;;;4996167;28;20050;-86
2022/01/22 16:26:49;;;;;;;6.57;1.20;;;;;;;;;;4996366;28;20049;-87
2022/01/22 16:29:16;;;;;;;6.00;1.10;;;;;;;;;;4995797;28;20046;-87
2022/01/22 16:31:44;;;;;;;9.35;1.20;;;;;;;;;;4996134;28;20434;-87
2022/01/22 16:34:10;;;;;;;4.25;1.20;;;;;;;;;;4979546;28;20046;-87
2022/01/22 16:36:36;;;;;;;4.80;1.17;;;;;;;;;;4995928;28;20489;-87
2022/01/22 16:39:05;;;;;;;3.60;1.00;;;;;;;;;;4996100;28;20045;-87